createdAt,value
2018-07-27T00:00:38.051Z,2.40
2018-07-27T00:01:38.053Z,2.40
2018-07-27T00:02:38.073Z,2.60
2018-07-27T00:03:38.075Z,2.60
2018-07-27T00:04:38.616Z,2.70
2018-07-27T00:05:38.091Z,2.40
2018-07-27T00:06:38.099Z,2.70
2018-07-27T00:07:38.110Z,2.40
2018-07-27T00:08:38.117Z,2.40
2018-07-27T00:09:38.126Z,2.50
2018-07-27T00:10:38.134Z,2.60
2018-07-27T00:11:38.152Z,3.00
2018-07-27T00:12:38.158Z,2.70
2018-07-27T00:13:38.168Z,2.60
2018-07-27T00:14:38.171Z,2.40
2018-07-27T00:15:38.187Z,2.30
2018-07-27T00:16:38.186Z,2.50
2018-07-27T00:17:38.202Z,2.40
2018-07-27T00:18:38.217Z,2.70
2018-07-27T00:19:38.214Z,2.50
2018-07-27T00:20:38.225Z,2.70
2018-07-27T00:21:38.233Z,2.90
2018-07-27T00:22:38.241Z,2.40
2018-07-27T00:23:38.250Z,2.60
2018-07-27T00:24:38.258Z,2.80
2018-07-27T00:25:38.265Z,3.10
2018-07-27T00:26:38.276Z,2.70
2018-07-27T00:27:38.288Z,2.70
2018-07-27T00:28:38.317Z,2.60
2018-07-27T00:29:38.301Z,2.60
2018-07-27T00:30:38.310Z,2.60
2018-07-27T00:31:38.319Z,3.20
2018-07-27T00:32:38.327Z,2.60
2018-07-27T00:33:38.334Z,2.40
2018-07-27T00:34:38.362Z,2.70
2018-07-27T00:35:38.391Z,2.70
2018-07-27T00:36:38.377Z,2.60
2018-07-27T00:37:38.416Z,2.80
2018-07-27T00:38:38.427Z,2.80
2018-07-27T00:39:38.392Z,2.60
2018-07-27T00:40:38.396Z,2.70
2018-07-27T00:41:38.405Z,2.60
2018-07-27T00:42:38.420Z,2.60
2018-07-27T00:43:38.454Z,3.00
2018-07-27T00:44:38.440Z,2.50
2018-07-27T00:45:38.481Z,2.50
2018-07-27T00:46:38.466Z,3.10
2018-07-27T00:47:38.458Z,2.60
2018-07-27T00:48:38.481Z,2.20
2018-07-27T00:49:38.491Z,2.40
2018-07-27T00:50:38.495Z,2.60
2018-07-27T00:51:38.518Z,2.60
2018-07-27T00:52:38.536Z,3.30
2018-07-27T00:53:38.522Z,2.60
2018-07-27T00:54:38.536Z,2.80
2018-07-27T00:55:38.544Z,2.60
2018-07-27T00:56:38.565Z,2.60
2018-07-27T00:57:38.556Z,2.50
2018-07-27T00:58:38.565Z,2.90
2018-07-27T00:59:38.575Z,2.30
2018-07-27T01:00:38.579Z,2.20
2018-07-27T01:01:38.589Z,2.70
2018-07-27T01:02:38.611Z,2.60
2018-07-27T01:03:38.608Z,2.40
2018-07-27T01:04:38.608Z,2.90
2018-07-27T01:05:38.630Z,2.70
2018-07-27T01:06:38.626Z,2.70
2018-07-27T01:07:38.636Z,2.80
2018-07-27T01:08:38.643Z,2.70
2018-07-27T01:09:38.652Z,2.80
2018-07-27T01:10:38.659Z,2.40
2018-07-27T01:11:38.683Z,2.80
2018-07-27T01:12:38.677Z,2.70
2018-07-27T01:13:38.685Z,2.60
2018-07-27T01:14:38.697Z,2.60
2018-07-27T01:15:38.701Z,2.90
2018-07-27T01:16:38.723Z,2.50
2018-07-27T01:17:38.725Z,2.70
2018-07-27T01:18:38.724Z,2.60
2018-07-27T01:19:38.733Z,2.80
2018-07-27T01:20:38.737Z,2.80
2018-07-27T01:21:38.752Z,2.70
2018-07-27T01:22:38.757Z,3.00
2018-07-27T01:23:38.770Z,2.60
2018-07-27T01:24:38.771Z,2.80
2018-07-27T01:25:38.790Z,2.80
2018-07-27T01:26:38.793Z,2.70
2018-07-27T01:27:39.653Z,2.80
2018-07-27T01:28:38.808Z,2.70
2018-07-27T01:29:38.817Z,2.80
2018-07-27T01:30:38.822Z,2.60
2018-07-27T01:31:38.830Z,2.60
2018-07-27T01:32:38.839Z,2.90
2018-07-27T01:33:38.847Z,2.70
2018-07-27T01:34:38.855Z,2.70
2018-07-27T01:35:38.863Z,2.70
2018-07-27T01:36:38.870Z,2.70
2018-07-27T01:37:38.878Z,2.70
2018-07-27T01:38:38.887Z,2.50
2018-07-27T01:39:38.896Z,3.20
2018-07-27T01:40:38.905Z,2.70
2018-07-27T01:41:38.911Z,2.80
2018-07-27T01:42:38.921Z,2.80
2018-07-27T01:43:38.930Z,2.60
2018-07-27T01:44:38.980Z,3.00
2018-07-27T01:45:38.948Z,2.80
2018-07-27T01:46:38.998Z,2.90
2018-07-27T01:47:39.001Z,3.10
2018-07-27T01:48:38.970Z,3.10
2018-07-27T01:49:39.025Z,3.10
2018-07-27T01:50:38.995Z,2.80
2018-07-27T01:51:39.025Z,2.60
2018-07-27T01:52:39.030Z,3.00
2018-07-27T01:53:39.022Z,3.00
2018-07-27T01:54:39.019Z,2.70
2018-07-27T01:55:39.028Z,2.80
2018-07-27T01:56:39.038Z,2.60
2018-07-27T01:57:39.658Z,2.90
2018-07-27T01:58:39.059Z,2.90
2018-07-27T01:59:39.065Z,2.60
2018-07-27T02:00:39.072Z,2.90
2018-07-27T02:01:39.087Z,2.60
2018-07-27T02:02:39.087Z,2.90
2018-07-27T02:03:39.100Z,3.10
2018-07-27T02:04:39.106Z,3.00
2018-07-27T02:05:39.115Z,3.00
2018-07-27T02:06:39.134Z,3.00
2018-07-27T02:07:39.193Z,2.70
2018-07-27T02:08:39.151Z,2.80
2018-07-27T02:09:39.146Z,2.80
2018-07-27T02:10:39.160Z,2.70
2018-07-27T02:11:39.167Z,2.90
2018-07-27T02:12:39.173Z,2.50
2018-07-27T02:13:39.181Z,2.70
2018-07-27T02:14:39.206Z,2.90
2018-07-27T02:15:39.192Z,3.20
2018-07-27T02:16:39.207Z,2.80
2018-07-27T02:17:39.212Z,3.00
2018-07-27T02:18:39.222Z,3.10
2018-07-27T02:19:39.228Z,2.70
2018-07-27T02:20:39.236Z,3.00
2018-07-27T02:21:39.242Z,2.80
2018-07-27T02:22:39.251Z,3.00
2018-07-27T02:23:39.299Z,2.70
2018-07-27T02:24:39.265Z,2.90
2018-07-27T02:25:39.273Z,2.80
2018-07-27T02:26:39.281Z,2.90
2018-07-27T02:27:39.289Z,2.90
2018-07-27T02:28:39.297Z,3.00
2018-07-27T02:29:39.305Z,2.90
2018-07-27T02:30:39.314Z,3.10
2018-07-27T02:31:39.323Z,2.90
2018-07-27T02:32:39.337Z,3.10
2018-07-27T02:33:39.415Z,3.20
2018-07-27T02:34:39.350Z,2.90
2018-07-27T02:35:39.354Z,2.90
2018-07-27T02:36:39.363Z,2.90
2018-07-27T02:37:39.380Z,3.00
2018-07-27T02:38:39.377Z,3.20
2018-07-27T02:39:39.397Z,3.10
2018-07-27T02:40:39.398Z,3.20
2018-07-27T02:41:39.403Z,2.70
2018-07-27T02:42:39.418Z,3.00
2018-07-27T02:43:39.417Z,3.50
2018-07-27T02:44:39.431Z,3.00
2018-07-27T02:45:39.438Z,3.20
2018-07-27T02:46:39.448Z,3.00
2018-07-27T02:47:39.453Z,3.40
2018-07-27T02:48:39.459Z,3.10
2018-07-27T02:49:39.465Z,3.00
2018-07-27T02:50:39.474Z,2.90
2018-07-27T02:51:39.482Z,2.90
2018-07-27T02:52:39.490Z,4.30
2018-07-27T02:53:39.496Z,2.80
2018-07-27T02:54:39.504Z,3.00
2018-07-27T02:55:39.515Z,3.50
2018-07-27T02:56:39.527Z,3.50
2018-07-27T02:57:39.527Z,2.70
2018-07-27T02:58:39.537Z,3.00
2018-07-27T02:59:39.544Z,3.00
2018-07-27T03:00:39.553Z,3.10
2018-07-27T03:01:39.561Z,3.60
2018-07-27T03:02:39.571Z,3.10
2018-07-27T03:03:39.575Z,3.20
2018-07-27T03:04:39.582Z,2.90
2018-07-27T03:05:39.592Z,3.20
2018-07-27T03:06:39.597Z,3.00
2018-07-27T03:07:39.605Z,3.20
2018-07-27T03:08:39.613Z,3.10
2018-07-27T03:09:39.657Z,3.30
2018-07-27T03:10:39.628Z,3.10
2018-07-27T03:11:39.637Z,3.00
2018-07-27T03:12:39.646Z,3.00
2018-07-27T03:13:39.655Z,2.70
2018-07-27T03:14:39.659Z,3.00
2018-07-27T03:15:39.671Z,3.40
2018-07-27T03:16:39.677Z,3.50
2018-07-27T03:17:39.682Z,3.40
2018-07-27T03:18:39.692Z,3.20
2018-07-27T03:19:39.706Z,3.10
2018-07-27T03:20:39.710Z,2.90
2018-07-27T03:21:39.712Z,2.90
2018-07-27T03:22:39.721Z,3.20
2018-07-27T03:23:39.730Z,3.20
2018-07-27T03:24:39.737Z,3.20
2018-07-27T03:25:39.744Z,3.00
2018-07-27T03:26:39.754Z,3.50
2018-07-27T03:27:39.758Z,3.50
2018-07-27T03:28:39.768Z,3.40
2018-07-27T03:29:39.775Z,3.00
2018-07-27T03:30:39.782Z,3.40
2018-07-27T03:31:39.790Z,3.40
2018-07-27T03:32:39.797Z,3.10
2018-07-27T03:33:39.804Z,3.40
2018-07-27T03:34:39.814Z,3.30
2018-07-27T03:35:39.824Z,3.40
2018-07-27T03:36:39.840Z,3.70
2018-07-27T03:37:39.844Z,3.50
2018-07-27T03:38:39.850Z,4.10
2018-07-27T03:39:39.851Z,4.60
2018-07-27T03:40:39.864Z,3.40
2018-07-27T03:41:39.869Z,3.60
2018-07-27T03:42:39.876Z,3.10
2018-07-27T03:43:39.951Z,3.10
2018-07-27T03:44:39.890Z,3.60
2018-07-27T03:45:39.900Z,3.40
2018-07-27T03:46:39.905Z,3.20
2018-07-27T03:47:39.915Z,3.30
2018-07-27T03:48:39.919Z,3.20
2018-07-27T03:49:39.927Z,4.10
2018-07-27T03:50:39.933Z,3.60
2018-07-27T03:51:39.943Z,3.40
2018-07-27T03:52:39.948Z,3.10
2018-07-27T03:53:39.957Z,3.40
2018-07-27T03:54:39.962Z,3.30
2018-07-27T03:55:39.970Z,3.40
2018-07-27T03:56:39.978Z,3.20
2018-07-27T03:57:39.984Z,3.20
2018-07-27T03:58:39.992Z,3.40
2018-07-27T03:59:40.001Z,3.10
2018-07-27T04:00:40.009Z,3.60
2018-07-27T04:01:40.015Z,5.10
2018-07-27T04:02:40.025Z,3.50
2018-07-27T04:03:40.030Z,3.30
2018-07-27T04:04:40.037Z,3.80
2018-07-27T04:05:40.077Z,3.30
2018-07-27T04:06:40.053Z,3.30
2018-07-27T04:07:40.070Z,3.50
2018-07-27T04:08:40.127Z,3.10
2018-07-27T04:09:40.079Z,3.30
2018-07-27T04:10:40.093Z,3.40
2018-07-27T04:11:40.092Z,3.40
2018-07-27T04:12:40.100Z,4.10
2018-07-27T04:13:40.115Z,3.80
2018-07-27T04:14:40.121Z,3.50
2018-07-27T04:15:40.121Z,3.20
2018-07-27T04:16:40.149Z,3.60
2018-07-27T04:17:40.146Z,4.30
2018-07-27T04:18:40.151Z,3.50
2018-07-27T04:19:40.174Z,3.70
2018-07-27T04:20:40.165Z,3.30
2018-07-27T04:21:40.171Z,3.40
2018-07-27T04:22:40.183Z,3.40
2018-07-27T04:23:40.188Z,3.60
2018-07-27T04:24:40.199Z,3.30
2018-07-27T04:25:40.201Z,3.50
2018-07-27T04:26:40.209Z,3.60
2018-07-27T04:27:40.218Z,3.60
2018-07-27T04:28:40.221Z,3.70
2018-07-27T04:29:40.229Z,3.80
2018-07-27T04:30:40.238Z,3.40
2018-07-27T04:31:40.247Z,3.60
2018-07-27T04:32:40.253Z,4.00
2018-07-27T04:33:40.263Z,3.60
2018-07-27T04:34:40.268Z,3.90
2018-07-27T04:35:40.318Z,3.30
2018-07-27T04:36:40.285Z,3.70
2018-07-27T04:37:40.293Z,3.50
2018-07-27T04:38:40.301Z,3.70
2018-07-27T04:39:40.309Z,3.70
2018-07-27T04:40:40.321Z,3.50
2018-07-27T04:41:40.327Z,3.90
2018-07-27T04:42:40.334Z,3.40
2018-07-27T04:43:40.344Z,3.60
2018-07-27T04:44:40.351Z,3.80
2018-07-27T04:45:40.358Z,3.60
2018-07-27T04:46:40.368Z,3.50
2018-07-27T04:47:40.376Z,3.60
2018-07-27T04:48:40.383Z,3.60
2018-07-27T04:49:40.394Z,3.40
2018-07-27T04:50:40.401Z,4.10
2018-07-27T04:51:40.407Z,3.70
2018-07-27T04:52:40.418Z,3.50
2018-07-27T04:53:40.424Z,3.50
2018-07-27T04:54:40.432Z,3.60
2018-07-27T04:55:40.445Z,3.80
2018-07-27T04:56:40.541Z,3.60
2018-07-27T04:57:40.517Z,4.10
2018-07-27T04:58:40.466Z,3.30
2018-07-27T04:59:40.483Z,3.80
2018-07-27T05:00:40.486Z,3.70
2018-07-27T05:01:40.497Z,3.50
2018-07-27T05:02:40.501Z,3.40
2018-07-27T05:03:40.511Z,3.30
2018-07-27T05:04:40.527Z,3.70
2018-07-27T05:05:40.523Z,4.10
2018-07-27T05:06:40.532Z,3.40
2018-07-27T05:07:40.543Z,3.80
2018-07-27T05:08:40.551Z,3.70
2018-07-27T05:09:40.560Z,3.50
2018-07-27T05:10:40.567Z,3.90
2018-07-27T05:11:40.596Z,4.00
2018-07-27T05:12:40.588Z,3.60
2018-07-27T05:13:40.592Z,4.00
2018-07-27T05:14:40.599Z,3.50
2018-07-27T05:15:40.609Z,3.90
2018-07-27T05:16:40.620Z,3.80
2018-07-27T05:17:40.628Z,4.00
2018-07-27T05:18:40.635Z,3.50
2018-07-27T05:19:40.644Z,3.70
2018-07-27T05:20:40.654Z,3.90
2018-07-27T05:21:40.669Z,3.70
2018-07-27T05:22:40.670Z,3.60
2018-07-27T05:23:40.682Z,3.80
2018-07-27T05:24:40.770Z,3.90
2018-07-27T05:25:40.711Z,3.80
2018-07-27T05:26:40.707Z,3.50
2018-07-27T05:27:40.715Z,3.60
2018-07-27T05:28:40.733Z,3.50
2018-07-27T05:29:40.748Z,3.60
2018-07-27T05:30:40.762Z,3.80
2018-07-27T05:31:40.770Z,3.80
2018-07-27T05:32:40.768Z,4.00
2018-07-27T05:33:40.778Z,3.70
2018-07-27T05:34:40.802Z,3.30
2018-07-27T05:35:40.794Z,3.80
2018-07-27T05:36:40.806Z,3.80
2018-07-27T05:37:40.812Z,3.40
2018-07-27T05:38:40.823Z,3.60
2018-07-27T05:39:40.834Z,3.60
2018-07-27T05:40:40.842Z,3.70
2018-07-27T05:41:40.851Z,3.50
2018-07-27T05:42:40.868Z,3.50
2018-07-27T05:43:40.871Z,3.80
2018-07-27T05:44:40.881Z,3.80
2018-07-27T05:45:40.891Z,3.30
2018-07-27T05:46:40.911Z,3.50
2018-07-27T05:47:40.943Z,3.50
2018-07-27T05:48:40.967Z,3.60
2018-07-27T05:49:40.941Z,3.20
2018-07-27T05:50:40.954Z,3.50
2018-07-27T05:51:40.970Z,3.20
2018-07-27T05:52:40.990Z,3.40
2018-07-27T05:53:41.000Z,3.50
2018-07-27T05:54:41.008Z,3.60
2018-07-27T05:55:41.018Z,3.40
2018-07-27T05:56:41.038Z,3.10
2018-07-27T05:57:41.053Z,3.20
2018-07-27T05:58:41.069Z,3.30
2018-07-27T05:59:41.091Z,3.30
2018-07-27T06:00:41.090Z,3.40
2018-07-27T06:01:41.107Z,3.40
2018-07-27T06:02:41.128Z,3.40
2018-07-27T06:03:41.134Z,3.40
2018-07-27T06:04:41.157Z,3.30
2018-07-27T06:05:41.169Z,3.40
2018-07-27T06:06:41.181Z,3.20
2018-07-27T06:07:41.200Z,3.10
2018-07-27T06:08:41.226Z,3.70
2018-07-27T06:09:41.234Z,3.10
2018-07-27T06:10:41.244Z,3.20
2018-07-27T06:11:41.262Z,3.40
2018-07-27T06:12:41.276Z,3.30
2018-07-27T06:13:41.289Z,3.10
2018-07-27T06:14:41.316Z,2.80
2018-07-27T06:15:42.256Z,3.40
2018-07-27T06:16:41.342Z,3.40
2018-07-27T06:17:41.355Z,3.30
2018-07-27T06:18:41.372Z,3.30
2018-07-27T06:19:41.386Z,3.00
2018-07-27T06:20:41.406Z,2.80
2018-07-27T06:21:41.437Z,3.10
2018-07-27T06:22:41.439Z,2.90
2018-07-27T06:23:41.480Z,3.00
2018-07-27T06:24:41.474Z,3.00
2018-07-27T06:25:41.528Z,3.00
2018-07-27T06:26:41.508Z,3.40
2018-07-27T06:27:41.524Z,3.30
2018-07-27T06:28:41.547Z,3.30
2018-07-27T06:29:41.561Z,3.00
2018-07-27T06:30:41.597Z,3.20
2018-07-27T06:31:41.681Z,3.30
2018-07-27T06:32:41.705Z,3.00
2018-07-27T06:33:41.636Z,3.30
2018-07-27T06:34:41.654Z,3.40
2018-07-27T06:35:41.668Z,3.50
2018-07-27T06:36:41.685Z,3.00
2018-07-27T06:37:41.710Z,3.20
2018-07-27T06:38:41.724Z,3.20
2018-07-27T06:39:41.745Z,3.20
2018-07-27T06:40:41.766Z,3.50
2018-07-27T06:41:41.782Z,3.00
2018-07-27T06:42:41.800Z,3.50
2018-07-27T06:43:41.820Z,3.10
2018-07-27T06:44:41.841Z,3.20
2018-07-27T06:45:41.855Z,2.90
2018-07-27T06:46:41.875Z,3.20
2018-07-27T06:47:41.916Z,3.40
2018-07-27T06:48:41.919Z,3.00
2018-07-27T06:49:41.946Z,3.40
2018-07-27T06:50:41.962Z,3.20
2018-07-27T06:51:41.972Z,3.40
2018-07-27T06:52:41.993Z,3.10
2018-07-27T06:53:42.015Z,3.20
2018-07-27T06:54:42.040Z,3.50
2018-07-27T06:55:42.057Z,3.10
2018-07-27T06:56:42.082Z,3.50
2018-07-27T06:57:42.107Z,3.40
2018-07-27T06:58:42.110Z,3.20
2018-07-27T06:59:42.135Z,3.30
2018-07-27T07:00:42.150Z,3.40
2018-07-27T07:01:42.183Z,3.10
2018-07-27T07:02:42.221Z,3.30
2018-07-27T07:03:42.212Z,3.50
2018-07-27T07:04:42.239Z,3.40
2018-07-27T07:05:42.269Z,3.00
2018-07-27T07:06:42.272Z,3.30
2018-07-27T07:07:42.298Z,3.10
2018-07-27T07:08:42.328Z,3.60
2018-07-27T07:09:42.349Z,3.50
2018-07-27T07:10:42.348Z,2.90
2018-07-27T07:11:42.369Z,3.60
2018-07-27T07:12:42.399Z,3.20
2018-07-27T07:13:42.412Z,3.10
2018-07-27T07:14:42.434Z,3.30
2018-07-27T07:15:42.461Z,3.20
2018-07-27T07:16:42.488Z,2.90
2018-07-27T07:17:42.495Z,3.30
2018-07-27T07:18:42.511Z,3.10
2018-07-27T07:19:42.533Z,3.00
2018-07-27T07:20:42.556Z,3.20
2018-07-27T07:21:42.574Z,3.00
2018-07-27T07:22:42.597Z,3.50
2018-07-27T07:23:42.621Z,3.00
2018-07-27T07:24:42.640Z,3.10
2018-07-27T07:25:42.761Z,3.20
2018-07-27T07:26:42.678Z,3.00
2018-07-27T07:27:42.707Z,3.20
2018-07-27T07:28:42.723Z,3.00
2018-07-27T07:29:42.743Z,2.80
2018-07-27T07:30:42.767Z,2.90
2018-07-27T07:31:42.785Z,3.10
2018-07-27T07:32:42.806Z,3.10
2018-07-27T07:33:42.841Z,2.80
2018-07-27T07:34:42.855Z,3.10
2018-07-27T07:35:42.879Z,2.90
2018-07-27T07:36:42.896Z,2.90
2018-07-27T07:37:42.915Z,2.70
2018-07-27T07:38:42.937Z,3.00
2018-07-27T07:39:42.962Z,2.60
2018-07-27T07:40:42.987Z,2.80
2018-07-27T07:41:43.007Z,3.00
2018-07-27T07:42:43.028Z,2.90
2018-07-27T07:43:43.062Z,3.20
2018-07-27T07:44:43.074Z,3.00
2018-07-27T07:45:43.092Z,3.00
2018-07-27T07:46:43.115Z,3.00
2018-07-27T07:47:43.135Z,2.90
2018-07-27T07:48:43.166Z,3.10
2018-07-27T07:49:43.183Z,3.20
2018-07-27T07:50:43.202Z,3.50
2018-07-27T07:51:43.224Z,3.10
2018-07-27T07:52:43.248Z,2.90
2018-07-27T07:53:43.278Z,2.90
2018-07-27T07:54:43.303Z,2.90
2018-07-27T07:55:43.321Z,2.90
2018-07-27T07:56:43.443Z,2.60
2018-07-27T07:57:43.365Z,2.90
2018-07-27T07:58:43.404Z,2.90
2018-07-27T07:59:43.409Z,2.80
2018-07-27T08:00:43.465Z,3.00
2018-07-27T08:01:43.460Z,3.10
2018-07-27T08:02:43.478Z,3.00
2018-07-27T08:03:43.501Z,2.80
2018-07-27T08:04:43.531Z,3.10
2018-07-27T08:05:43.546Z,2.90
2018-07-27T08:06:43.574Z,2.90
2018-07-27T08:07:43.598Z,2.80
2018-07-27T08:08:43.632Z,2.90
2018-07-27T08:09:44.291Z,3.30
2018-07-27T08:10:43.663Z,3.10
2018-07-27T08:11:43.685Z,3.10
2018-07-27T08:12:43.709Z,3.50
2018-07-27T08:13:43.732Z,3.10
2018-07-27T08:14:43.756Z,3.10
2018-07-27T08:15:43.782Z,3.20
2018-07-27T08:16:43.809Z,3.00
2018-07-27T08:17:43.824Z,2.70
2018-07-27T08:18:43.848Z,3.00
2018-07-27T08:19:43.871Z,3.10
2018-07-27T08:20:43.899Z,3.20
2018-07-27T08:21:44.029Z,2.70
2018-07-27T08:22:43.957Z,2.80
2018-07-27T08:23:43.969Z,3.20
2018-07-27T08:24:43.989Z,3.00
2018-07-27T08:25:44.013Z,2.80
2018-07-27T08:26:44.040Z,2.90
2018-07-27T08:27:44.065Z,2.80
2018-07-27T08:28:44.082Z,3.00
2018-07-27T08:29:44.111Z,2.50
2018-07-27T08:30:44.132Z,3.00
2018-07-27T08:31:44.154Z,2.80
2018-07-27T08:32:44.181Z,2.80
2018-07-27T08:33:44.201Z,2.80
2018-07-27T08:34:44.244Z,2.80
2018-07-27T08:35:44.247Z,2.90
2018-07-27T08:36:44.271Z,3.00
2018-07-27T08:37:44.295Z,3.00
2018-07-27T08:38:44.318Z,2.70
2018-07-27T08:39:44.416Z,2.70
2018-07-27T08:40:44.367Z,3.00
2018-07-27T08:41:44.393Z,2.60
2018-07-27T08:42:44.412Z,2.80
2018-07-27T08:43:44.442Z,2.90
2018-07-27T08:44:44.461Z,2.70
2018-07-27T08:45:44.485Z,2.90
2018-07-27T08:46:44.507Z,2.70
2018-07-27T08:47:44.536Z,3.00
2018-07-27T08:48:44.555Z,3.20
2018-07-27T08:49:44.580Z,2.80
2018-07-27T08:50:44.602Z,3.00
2018-07-27T08:51:44.642Z,3.10
2018-07-27T08:52:44.659Z,2.80
2018-07-27T08:53:44.679Z,2.60
2018-07-27T08:54:44.694Z,2.70
2018-07-27T08:55:44.717Z,2.80
2018-07-27T08:56:44.741Z,3.00
2018-07-27T08:57:44.769Z,3.20
2018-07-27T08:58:44.791Z,3.00
2018-07-27T08:59:44.815Z,2.70
2018-07-27T09:00:44.837Z,2.80
2018-07-27T09:01:44.861Z,2.80
2018-07-27T09:02:44.884Z,2.90
2018-07-27T09:03:44.916Z,2.80
2018-07-27T09:04:44.930Z,2.70
2018-07-27T09:05:44.965Z,2.70
2018-07-27T09:06:44.975Z,2.70
2018-07-27T09:07:44.998Z,2.70
2018-07-27T09:08:45.025Z,2.70
2018-07-27T09:09:45.060Z,2.90
2018-07-27T09:10:45.074Z,2.90
2018-07-27T09:11:45.097Z,3.00
2018-07-27T09:12:45.122Z,3.30
2018-07-27T09:13:45.141Z,3.10
2018-07-27T09:14:45.165Z,2.60
2018-07-27T09:15:45.188Z,2.50
2018-07-27T09:16:45.219Z,2.80
2018-07-27T09:17:45.235Z,2.60
2018-07-27T09:18:45.261Z,2.70
2018-07-27T09:19:45.284Z,2.70
2018-07-27T09:20:45.306Z,2.90
2018-07-27T09:21:45.328Z,2.70
2018-07-27T09:22:45.362Z,2.70
2018-07-27T09:23:45.378Z,2.50
2018-07-27T09:24:45.559Z,2.60
2018-07-27T09:25:45.425Z,2.20
2018-07-27T09:26:45.449Z,2.50
2018-07-27T09:27:45.471Z,2.60
2018-07-27T09:28:45.498Z,2.80
2018-07-27T09:29:45.517Z,2.70
2018-07-27T09:30:45.540Z,2.40
2018-07-27T09:31:45.564Z,2.30
2018-07-27T09:32:45.586Z,2.30
2018-07-27T09:33:45.616Z,2.40
2018-07-27T09:34:45.636Z,2.60
2018-07-27T09:35:45.655Z,2.10
2018-07-27T09:36:45.683Z,2.50
2018-07-27T09:37:45.703Z,2.00
2018-07-27T09:38:45.725Z,2.10
2018-07-27T09:39:45.747Z,2.50
2018-07-27T09:40:45.774Z,2.50
2018-07-27T09:41:45.809Z,2.40
2018-07-27T09:42:45.829Z,2.40
2018-07-27T09:43:45.839Z,2.70
2018-07-27T09:44:45.860Z,2.60
2018-07-27T09:45:45.881Z,2.50
2018-07-27T09:46:45.906Z,2.60
2018-07-27T09:47:45.944Z,2.40
2018-07-27T09:48:45.952Z,2.60
2018-07-27T09:49:45.972Z,2.30
2018-07-27T09:50:46.003Z,2.30
2018-07-27T09:51:46.070Z,2.80
2018-07-27T09:52:46.040Z,2.60
2018-07-27T09:53:46.095Z,2.20
2018-07-27T09:54:46.091Z,2.50
2018-07-27T09:55:46.107Z,2.60
2018-07-27T09:56:46.131Z,2.50
2018-07-27T09:57:46.180Z,2.60
2018-07-27T09:58:46.177Z,2.50
2018-07-27T09:59:46.200Z,2.40
2018-07-27T10:00:46.224Z,2.60
2018-07-27T10:01:46.248Z,2.40
2018-07-27T10:02:46.268Z,2.60
2018-07-27T10:03:46.298Z,2.60
2018-07-27T10:04:46.314Z,3.10
2018-07-27T10:05:46.388Z,2.80
2018-07-27T10:06:46.363Z,2.60
2018-07-27T10:07:46.394Z,2.50
2018-07-27T10:08:46.407Z,2.60
2018-07-27T10:09:46.435Z,2.50
2018-07-27T10:10:46.455Z,2.60
2018-07-27T10:11:46.480Z,2.60
2018-07-27T10:12:46.544Z,2.50
2018-07-27T10:13:46.522Z,2.50
2018-07-27T10:14:46.545Z,2.70
2018-07-27T10:15:46.573Z,2.70
2018-07-27T10:16:46.594Z,2.70
2018-07-27T10:17:46.626Z,2.70
2018-07-27T10:18:46.653Z,2.80
2018-07-27T10:19:46.680Z,2.60
2018-07-27T10:20:46.688Z,2.60
2018-07-27T10:21:47.325Z,2.90
2018-07-27T10:22:46.745Z,2.60
2018-07-27T10:23:46.755Z,2.60
2018-07-27T10:24:46.778Z,2.30
2018-07-27T10:25:46.803Z,2.70
2018-07-27T10:26:46.839Z,2.60
2018-07-27T10:27:46.864Z,2.30
2018-07-27T10:28:46.870Z,2.10
2018-07-27T10:29:46.890Z,2.00
2018-07-27T10:30:46.914Z,2.10
2018-07-27T10:31:46.939Z,2.20
2018-07-27T10:32:46.962Z,2.00
2018-07-27T10:33:46.991Z,2.10
2018-07-27T10:34:47.009Z,1.90
2018-07-27T10:35:47.026Z,2.60
2018-07-27T10:36:47.056Z,2.30
2018-07-27T10:37:47.071Z,1.90
2018-07-27T10:38:47.240Z,2.00
2018-07-27T10:39:47.132Z,2.30
2018-07-27T10:40:47.138Z,2.30
2018-07-27T10:41:47.834Z,2.10
2018-07-27T10:42:47.187Z,2.00
2018-07-27T10:43:47.206Z,2.20
2018-07-27T10:44:47.259Z,2.20
2018-07-27T10:45:47.250Z,2.20
2018-07-27T10:46:47.279Z,2.20
2018-07-27T10:47:47.294Z,2.30
2018-07-27T10:48:47.314Z,2.30
2018-07-27T10:49:47.337Z,2.20
2018-07-27T10:50:47.357Z,2.10
2018-07-27T10:51:47.381Z,2.10
2018-07-27T10:52:47.402Z,2.10
2018-07-27T10:53:47.425Z,2.10
2018-07-27T10:54:47.444Z,2.30
2018-07-27T10:55:47.465Z,2.20
2018-07-27T10:56:47.488Z,1.90
2018-07-27T10:57:47.507Z,1.90
2018-07-27T10:58:47.530Z,2.40
2018-07-27T10:59:47.558Z,2.50
2018-07-27T11:00:47.583Z,2.10
2018-07-27T11:01:48.335Z,2.30
2018-07-27T11:02:47.634Z,2.40
2018-07-27T11:03:47.738Z,2.20
2018-07-27T11:04:47.666Z,2.10
2018-07-27T11:05:47.682Z,2.20
2018-07-27T11:06:47.710Z,2.00
2018-07-27T11:07:47.732Z,2.10
2018-07-27T11:08:47.776Z,2.20
2018-07-27T11:09:47.838Z,2.00
2018-07-27T11:10:47.793Z,2.00
2018-07-27T11:11:47.809Z,2.10
2018-07-27T11:12:47.831Z,2.00
2018-07-27T11:13:47.856Z,1.90
2018-07-27T11:14:47.883Z,2.20
2018-07-27T11:15:47.909Z,2.20
2018-07-27T11:16:47.923Z,1.90
2018-07-27T11:17:47.985Z,2.00
2018-07-27T11:18:47.957Z,2.10
2018-07-27T11:19:47.979Z,2.00
2018-07-27T11:20:48.011Z,2.10
2018-07-27T11:21:48.023Z,2.10
2018-07-27T11:22:48.048Z,2.00
2018-07-27T11:23:48.063Z,2.40
2018-07-27T11:24:48.092Z,2.10
2018-07-27T11:25:48.104Z,2.30
2018-07-27T11:26:48.127Z,2.20
2018-07-27T11:27:48.146Z,2.20
2018-07-27T11:28:48.167Z,1.90
2018-07-27T11:29:48.202Z,2.00
2018-07-27T11:30:48.208Z,1.90
2018-07-27T11:31:48.228Z,2.00
2018-07-27T11:32:48.253Z,2.20
2018-07-27T11:33:48.276Z,1.90
2018-07-27T11:34:48.294Z,1.90
2018-07-27T11:35:48.323Z,1.90
2018-07-27T11:36:48.329Z,1.90
2018-07-27T11:37:48.353Z,1.90
2018-07-27T11:38:48.372Z,1.90
2018-07-27T11:39:48.391Z,1.90
2018-07-27T11:40:48.412Z,1.90
2018-07-27T11:41:48.430Z,2.00
2018-07-27T11:42:48.450Z,2.10
2018-07-27T11:43:48.482Z,1.80
2018-07-27T11:44:48.501Z,1.80
2018-07-27T11:45:48.513Z,1.80
2018-07-27T11:46:48.534Z,1.80
2018-07-27T11:47:48.550Z,1.80
2018-07-27T11:48:48.571Z,1.90
2018-07-27T11:49:48.590Z,1.90
2018-07-27T11:50:48.608Z,1.70
2018-07-27T11:51:48.650Z,1.70
2018-07-27T11:52:48.670Z,1.70
2018-07-27T11:53:48.666Z,1.60
2018-07-27T11:54:48.685Z,1.90
2018-07-27T11:55:48.703Z,1.70
2018-07-27T11:56:48.725Z,1.90
2018-07-27T11:57:49.349Z,1.80
2018-07-27T11:58:48.761Z,2.00
2018-07-27T11:59:48.780Z,2.00
2018-07-27T12:00:48.798Z,1.80
2018-07-27T12:01:48.828Z,1.80
2018-07-27T12:02:48.838Z,1.90
2018-07-27T12:03:48.859Z,1.60
2018-07-27T12:04:48.877Z,1.70
2018-07-27T12:05:48.894Z,1.90
2018-07-27T12:06:48.920Z,1.60
2018-07-27T12:07:48.930Z,1.60
2018-07-27T12:08:48.948Z,1.60
2018-07-27T12:09:48.962Z,1.80
2018-07-27T12:10:48.986Z,1.80
2018-07-27T12:11:49.000Z,1.70
2018-07-27T12:12:49.034Z,2.10
2018-07-27T12:13:49.124Z,1.90
2018-07-27T12:14:49.180Z,1.80
2018-07-27T12:15:49.071Z,2.00
2018-07-27T12:16:49.082Z,2.00
2018-07-27T12:17:49.100Z,1.70
2018-07-27T12:18:49.114Z,2.00
2018-07-27T12:19:49.130Z,2.00
2018-07-27T12:20:49.267Z,1.70
2018-07-27T12:21:49.356Z,2.00
2018-07-27T12:22:49.185Z,1.90
2018-07-27T12:23:49.208Z,1.90
2018-07-27T12:24:49.209Z,1.90
2018-07-27T12:25:49.240Z,2.40
2018-07-27T12:26:49.259Z,2.20
2018-07-27T12:27:49.865Z,1.90
2018-07-27T12:28:49.274Z,1.90
2018-07-27T12:29:49.290Z,2.20
2018-07-27T12:30:49.310Z,2.20
2018-07-27T12:31:49.327Z,1.80
2018-07-27T12:32:49.339Z,2.10
2018-07-27T12:33:49.363Z,2.10
2018-07-27T12:34:49.367Z,2.00
2018-07-27T12:35:49.378Z,2.00
2018-07-27T12:36:49.388Z,1.90
2018-07-27T12:37:49.403Z,2.00
2018-07-27T12:38:49.461Z,2.50
2018-07-27T12:39:49.440Z,2.10
2018-07-27T12:40:49.447Z,2.20
2018-07-27T12:41:49.464Z,2.10
2018-07-27T12:42:49.484Z,2.40
2018-07-27T12:43:49.494Z,2.30
2018-07-27T12:44:49.544Z,2.20
2018-07-27T12:45:49.526Z,2.30
2018-07-27T12:46:49.552Z,2.30
2018-07-27T12:47:49.565Z,2.30
2018-07-27T12:48:49.562Z,2.10
2018-07-27T12:49:49.579Z,2.20
2018-07-27T12:50:49.618Z,2.00
2018-07-27T12:51:49.613Z,2.30
2018-07-27T12:52:49.625Z,1.90
2018-07-27T12:53:49.687Z,2.00
2018-07-27T12:54:49.652Z,3.10
2018-07-27T12:55:49.670Z,2.10
2018-07-27T12:56:49.680Z,2.30
2018-07-27T12:57:49.697Z,2.30
2018-07-27T12:58:49.715Z,2.00
2018-07-27T12:59:49.738Z,1.90
2018-07-27T13:00:49.748Z,2.50
2018-07-27T13:01:49.764Z,2.00
2018-07-27T13:02:49.775Z,2.40
2018-07-27T13:03:49.788Z,2.70
2018-07-27T13:04:49.805Z,2.00
2018-07-27T13:05:49.816Z,2.10
2018-07-27T13:06:49.833Z,2.20
2018-07-27T13:07:49.847Z,1.90
2018-07-27T13:08:49.861Z,2.00
2018-07-27T13:09:49.879Z,2.10
2018-07-27T13:10:49.903Z,2.30
2018-07-27T13:11:49.897Z,2.00
2018-07-27T13:12:49.918Z,2.50
2018-07-27T13:13:49.948Z,1.90
2018-07-27T13:14:50.900Z,2.40
2018-07-27T13:15:49.980Z,2.20
2018-07-27T13:16:49.981Z,2.00
2018-07-27T13:17:50.009Z,2.30
2018-07-27T13:18:50.025Z,2.50